Thunder radar more information blitzortung!


Radar de pluja more information rain snow radar


Visita la nostra xarxa de llocs de meteo:

Template documentation
and downloads

And another site



No particular awareness of the weather is required.    There are no Weather-warnings

Pagina Historial Weather Underground text

Diari Resum Abril 8, 2016 Unitats:  Mètric    Imperial   Tant
« Previous Dia
SegĂźent Dia »
Diari Setmana Mensual Anual Personalitzada
  Maxima: Minima: Media:
Temperatura: 16.0 °C 7.0 °C 11.2 °C
Punt de rosada: 7.1 °C -0.2 °C 3.3 °C
Humitat: 72 % 49 % 59 %
Wind Speed: 16.7 km/h 0.0 km/h 6 km/h
RĂ fegues de vent: 16.7 km/h - -
Vent:- - SSW
Pression baro: 1013.8 hPa 1010.0 hPa -
Precipitacions: 0.0 mm    
Historical Graphs
 
 
Dades de taula per Abril 8, 2016
Temps Temperatura Punt de rosada Pression baro Vent Wind Speed RĂ fegues de vent Humitat Rainfall Rate (Hourly)
00:02 11.9 °C 6.8 °C 1011.7 hPa SSE 3.7 km/h 3.7 km/h 71 % 0.0 mm
00:05 9.4 °C 1.1 °C 1011.7 hPa WSW 3.2 km/h 3.2 km/h 56 % 0.0 mm
00:07 12.0 °C 7.1 °C 1012.8 hPa ESE 5.6 km/h 5.6 km/h 72 % 0.0 mm
00:15 9.3 °C 0.7 °C 1011.7 hPa WSW 3.2 km/h 6.4 km/h 55 % 0.0 mm
00:25 9.2 °C 0.6 °C 1011.7 hPa WSW 3.2 km/h 4.8 km/h 55 % 0.0 mm
00:35 9.1 °C 0.5 °C 1011.7 hPa WSW 4.8 km/h 8.0 km/h 55 % 0.0 mm
00:45 9.0 °C 0.2 °C 1010.7 hPa West 8.0 km/h 8.0 km/h 54 % 0.0 mm
00:55 8.8 °C 0.0 °C 1011.7 hPa West 4.8 km/h 6.4 km/h 54 % 0.0 mm
01:05 8.7 °C -0.1 °C 1011.7 hPa WSW 3.2 km/h 6.4 km/h 54 % 0.0 mm
01:15 8.6 °C -0.2 °C 1011.7 hPa WSW 4.8 km/h 8.0 km/h 54 % 0.0 mm
01:25 8.6 °C 0.1 °C 1011.7 hPa Calm   3.2 km/h 55 % 0.0 mm
01:35 8.5 °C -0.1 °C 1011.7 hPa West 4.8 km/h 4.8 km/h 55 % 0.0 mm
01:45 8.5 °C -0.1 °C 1011.7 hPa WSW 3.2 km/h 4.8 km/h 55 % 0.0 mm
01:55 8.4 °C -0.1 °C 1011.7 hPa West 3.2 km/h 4.8 km/h 55 % 0.0 mm
02:05 8.4 °C 0.1 °C 1011.7 hPa Calm   3.2 km/h 56 % 0.0 mm
02:15 8.4 °C 0.1 °C 1011.7 hPa WNW 3.2 km/h 3.2 km/h 56 % 0.0 mm
02:25 8.4 °C 0.1 °C 1011.7 hPa West 4.8 km/h 6.4 km/h 56 % 0.0 mm
02:45 8.3 °C 0.0 °C 1011.7 hPa West 3.2 km/h 3.2 km/h 56 % 0.0 mm
02:55 8.1 °C 0.3 °C 1011.7 hPa Calm   3.2 km/h 58 % 0.0 mm
03:05 7.8 °C 0.7 °C 1011.7 hPa NNE 3.2 km/h 3.2 km/h 61 % 0.0 mm
03:15 7.4 °C 1.1 °C 1011.7 hPa NE 1.6 km/h 1.6 km/h 64 % 0.0 mm
03:25 7.2 °C 1.3 °C 1012.8 hPa Calm     66 % 0.0 mm
03:35 7.1 °C 1.4 °C 1012.8 hPa Calm     67 % 0.0 mm
03:45 7.2 °C 1.7 °C 1012.8 hPa Calm     68 % 0.0 mm
03:55 7.3 °C 1.8 °C 1012.8 hPa Calm   1.6 km/h 68 % 0.0 mm
04:05 7.5 °C 1.8 °C 1012.8 hPa South 1.6 km/h 1.6 km/h 67 % 0.0 mm
04:15 7.5 °C 1.8 °C 1011.7 hPa ENE 1.6 km/h 3.2 km/h 67 % 0.0 mm
04:25 7.7 °C 2.2 °C 1012.8 hPa ENE 1.6 km/h 4.8 km/h 68 % 0.0 mm
04:35 7.8 °C 2.3 °C 1012.8 hPa SW 1.6 km/h 3.2 km/h 68 % 0.0 mm
04:55 8.4 °C 2.8 °C 1012.8 hPa Calm   3.2 km/h 68 % 0.0 mm
05:05 8.7 °C 2.9 °C 1012.8 hPa SW 1.6 km/h 3.2 km/h 67 % 0.0 mm
05:15 8.9 °C 2.7 °C 1012.8 hPa SW 1.6 km/h 4.8 km/h 65 % 0.0 mm
05:25 9.3 °C 2.8 °C 1012.8 hPa Calm   4.8 km/h 64 % 0.0 mm
05:35 9.6 °C 2.9 °C 1012.8 hPa SW 1.6 km/h 4.8 km/h 63 % 0.0 mm
05:45 9.7 °C 2.8 °C 1013.8 hPa Calm   6.4 km/h 62 % 0.0 mm
06:05 10.4 °C 3.2 °C 1012.8 hPa NNE 1.6 km/h 8.0 km/h 61 % 0.0 mm
06:15 10.6 °C 3.2 °C 1013.8 hPa WNW 1.6 km/h 4.8 km/h 60 % 0.0 mm
06:25 10.2 °C 2.8 °C 1013.8 hPa WSW 3.2 km/h 4.8 km/h 60 % 0.0 mm
11:29 10.5 °C 2.8 °C 1013.8 hPa ESE 3.7 km/h 3.7 km/h 59 % 0.0 mm
11:34 11.0 °C 3.5 °C 1012.8 hPa ESE 3.7 km/h 3.7 km/h 60 % 0.0 mm
11:39 11.6 °C 3.8 °C 1012.8 hPa ESE 5.3 km/h 5.3 km/h 59 % 0.0 mm
11:44 11.5 °C 3.5 °C 1012.8 hPa SE 3.7 km/h 3.9 km/h 58 % 0.0 mm
11:49 11.7 °C 3.7 °C 1012.8 hPa East 7.4 km/h 7.4 km/h 58 % 0.0 mm
11:54 12.0 °C 3.7 °C 1012.8 hPa ESE 8.7 km/h 8.7 km/h 57 % 0.0 mm
11:59 12.1 °C 3.8 °C 1012.8 hPa ENE 5.6 km/h 5.6 km/h 57 % 0.0 mm
12:04 11.3 °C 2.8 °C 1012.8 hPa NE 14.8 km/h 14.8 km/h 56 % 0.0 mm
12:09 11.5 °C 3.0 °C 1012.8 hPa ESE 3.7 km/h 3.9 km/h 56 % 0.0 mm
12:14 11.8 °C 3.3 °C 1012.8 hPa ENE 2.3 km/h   56 % 0.0 mm
12:19 12.1 °C 3.6 °C 1012.8 hPa SSE 5.6 km/h   56 % 0.0 mm
12:24 12.1 °C 3.3 °C 1012.8 hPa ESE 7.4 km/h 7.4 km/h 55 % 0.0 mm
12:29 12.2 °C 3.4 °C 1012.8 hPa South 9.0 km/h 9.0 km/h 55 % 0.0 mm
12:39 12.7 °C 3.9 °C 1012.8 hPa ESE 9.3 km/h 9.3 km/h 55 % 0.0 mm
12:44 13.2 °C 4.3 °C 1012.8 hPa SSE 11.9 km/h 11.9 km/h 55 % 0.0 mm
12:49 13.0 °C 3.9 °C 1011.7 hPa NNE 7.4 km/h 7.4 km/h 54 % 0.0 mm
12:54 13.0 °C 3.9 °C 1011.7 hPa ENE 13.0 km/h 13.0 km/h 54 % 0.0 mm
13:04 13.2 °C 4.1 °C 1011.7 hPa ESE 9.7 km/h 9.7 km/h 54 % 0.0 mm
13:09 13.7 °C 4.3 °C 1011.7 hPa South 10.3 km/h 10.3 km/h 53 % 0.0 mm
13:14 14.1 °C 4.7 °C 1011.7 hPa SSW 3.7 km/h 3.7 km/h 53 % 0.0 mm
13:24 15.0 °C 5.5 °C 1011.7 hPa East 3.7 km/h 3.7 km/h 53 % 0.0 mm
13:34 13.9 °C 4.4 °C 1011.7 hPa ESE 9.7 km/h 9.7 km/h 53 % 0.0 mm
13:39 13.8 °C 4.1 °C 1011.7 hPa NNE 7.4 km/h 7.4 km/h 52 % 0.0 mm
13:44 13.7 °C 4.3 °C 1011.7 hPa East 11.1 km/h 11.1 km/h 53 % 0.0 mm
13:49 13.8 °C 4.7 °C 1011.7 hPa ENE 13.0 km/h 13.0 km/h 54 % 0.0 mm
13:54 13.9 °C 4.7 °C 1011.7 hPa East 9.3 km/h 9.3 km/h 54 % 0.0 mm
13:59 14.1 °C 4.9 °C 1011.7 hPa WSW 9.3 km/h 9.3 km/h 54 % 0.0 mm
14:04 14.4 °C 5.2 °C 1011.7 hPa SSE 9.3 km/h 9.3 km/h 54 % 0.0 mm
14:09 14.3 °C 5.4 °C 1011.7 hPa SE 9.3 km/h 9.3 km/h 55 % 0.0 mm
14:14 14.7 °C 5.5 °C 1011.7 hPa SSW 11.1 km/h 11.1 km/h 54 % 0.0 mm
14:24 14.9 °C 5.1 °C 1011.7 hPa South 7.4 km/h 7.4 km/h 52 % 0.0 mm
14:29 14.6 °C 4.6 °C 1011.7 hPa SW 5.6 km/h 7.6 km/h 51 % 0.0 mm
14:34 14.9 °C 4.8 °C 1011.7 hPa SSW 7.4 km/h 7.4 km/h 51 % 0.0 mm
14:39 15.6 °C 5.2 °C 1011.7 hPa SSW 11.1 km/h 11.1 km/h 50 % 0.0 mm
14:44 15.5 °C 5.1 °C 1011.7 hPa SW 13.0 km/h 13.0 km/h 50 % 0.0 mm
14:49 16.0 °C 5.6 °C 1011.7 hPa West 11.1 km/h 11.1 km/h 50 % 0.0 mm
14:54 16.0 °C 5.6 °C 1011.7 hPa SE 14.0 km/h 14.0 km/h 50 % 0.0 mm
14:59 15.8 °C 5.1 °C 1011.7 hPa SW 11.1 km/h 11.1 km/h 49 % 0.0 mm
15:04 15.4 °C 4.7 °C 1010.7 hPa SW 9.3 km/h 9.3 km/h 49 % 0.0 mm
15:09 15.0 °C 4.4 °C 1010.7 hPa SW 9.3 km/h 9.3 km/h 49 % 0.0 mm
15:14 14.6 °C 4.3 °C 1010.7 hPa SSW 13.0 km/h 13.0 km/h 50 % 0.0 mm
15:19 14.4 °C 3.8 °C 1010.7 hPa SW 13.0 km/h 13.0 km/h 49 % 0.0 mm
15:24 13.9 °C 3.3 °C 1010.7 hPa SSW 16.7 km/h 16.7 km/h 49 % 0.0 mm
15:29 13.6 °C 3.4 °C 1010.7 hPa SW 14.8 km/h 14.8 km/h 50 % 0.0 mm
15:34 13.8 °C 3.6 °C 1010.0 hPa SW 7.4 km/h 7.4 km/h 50 % 0.0 mm
15:39 13.9 °C 3.6 °C 1010.0 hPa SSW 14.8 km/h 14.8 km/h 50 % 0.0 mm
15:44 14.3 °C 4.0 °C 1010.0 hPa SSW 14.8 km/h 14.8 km/h 50 % 0.0 mm
15:49 14.0 °C 3.7 °C 1010.7 hPa SW 15.8 km/h 15.8 km/h 50 % 0.0 mm
15:54 13.2 °C 3.0 °C 1010.7 hPa SSW 11.1 km/h 11.4 km/h 50 % 0.0 mm
15:59 13.1 °C 3.2 °C 1010.7 hPa South 9.5 km/h 9.5 km/h 51 % 0.0 mm
16:04 12.9 °C 3.0 °C 1010.0 hPa West 16.7 km/h 16.7 km/h 51 % 0.0 mm
16:09 13.1 °C 3.2 °C 1010.0 hPa SW 9.0 km/h 9.0 km/h 51 % 0.0 mm
16:14 13.9 °C 3.9 °C 1010.0 hPa WSW 16.7 km/h 16.7 km/h 51 % 0.0 mm
16:19 13.8 °C 3.8 °C 1010.0 hPa WSW 16.7 km/h 16.7 km/h 51 % 0.0 mm
16:24 13.5 °C 3.6 °C 1010.0 hPa West 9.3 km/h 11.9 km/h 51 % 0.0 mm
16:29 13.4 °C 3.4 °C 1010.0 hPa South 2.3 km/h 3.5 km/h 51 % 0.0 mm
16:34 13.1 °C 3.2 °C 1010.0 hPa SSW 9.3 km/h 9.5 km/h 51 % 0.0 mm
16:39 13.0 °C 3.1 °C 1010.0 hPa WSW 6.1 km/h 6.1 km/h 51 % 0.0 mm
16:44 12.9 °C 3.0 °C 1010.0 hPa SSW 13.0 km/h 13.0 km/h 51 % 0.0 mm
16:49 12.8 °C 3.2 °C 1010.7 hPa WSW 9.3 km/h 9.3 km/h 52 % 0.0 mm
16:54 12.9 °C 3.3 °C 1010.7 hPa WSW 2.3 km/h 5.8 km/h 52 % 0.0 mm
16:59 13.0 °C 3.4 °C 1010.7 hPa SSE 3.9 km/h 3.9 km/h 52 % 0.0 mm
17:04 13.0 °C 3.4 °C 1010.7 hPa SSE 3.9 km/h 3.9 km/h 52 % 0.0 mm
17:09 13.0 °C 3.4 °C 1010.7 hPa SSW 5.0 km/h 5.0 km/h 52 % 0.0 mm
17:14 13.6 °C 3.9 °C 1010.7 hPa WSW 11.9 km/h 11.9 km/h 52 % 0.0 mm
17:19 14.1 °C 4.4 °C 1010.0 hPa SW 7.4 km/h 7.4 km/h 52 % 0.0 mm
17:25 14.4 °C 4.7 °C 1010.0 hPa WSW 9.3 km/h 9.3 km/h 52 % 0.0 mm
17:30 14.6 °C 4.8 °C 1010.0 hPa SSW 9.0 km/h 9.0 km/h 52 % 0.0 mm
17:35 14.1 °C 4.4 °C 1010.0 hPa SW 13.0 km/h 13.0 km/h 52 % 0.0 mm
17:40 14.1 °C 4.1 °C 1010.0 hPa West 11.1 km/h 11.1 km/h 51 % 0.0 mm
17:45 14.2 °C 4.5 °C 1010.0 hPa SW 6.9 km/h 6.9 km/h 52 % 0.0 mm
17:50 13.7 °C 3.7 °C 1010.7 hPa SW 9.5 km/h 9.5 km/h 51 % 0.0 mm
18:00 13.1 °C 3.4 °C 1010.7 hPa SW 9.7 km/h 9.7 km/h 52 % 0.0 mm
18:05 12.9 °C 3.6 °C 1010.7 hPa SW 9.7 km/h 9.7 km/h 53 % 0.0 mm
18:10 12.6 °C 3.3 °C 1010.7 hPa SW 9.7 km/h 9.7 km/h 53 % 0.0 mm
18:25 12.7 °C 3.6 °C 1010.7 hPa SSW 7.4 km/h 7.4 km/h 54 % 0.0 mm
18:30 12.6 °C 3.6 °C 1010.7 hPa ESE 2.6 km/h 6.9 km/h 54 % 0.0 mm
18:35 12.5 °C 3.4 °C 1010.7 hPa ESE 2.6 km/h 6.9 km/h 54 % 0.0 mm
18:40 12.4 °C 3.3 °C 1010.7 hPa ESE 2.6 km/h 6.9 km/h 54 % 0.0 mm
18:45 12.5 °C 3.7 °C 1010.7 hPa West 6.1 km/h 6.1 km/h 55 % 0.0 mm
18:50 12.5 °C 3.7 °C 1011.7 hPa West 6.1 km/h 6.1 km/h 55 % 0.0 mm
18:55 12.6 °C 4.1 °C 1011.7 hPa WSW 7.4 km/h 7.4 km/h 56 % 0.0 mm
19:05 12.7 °C 4.2 °C 1011.7 hPa SW 4.2 km/h 8.7 km/h 56 % 0.0 mm
19:10 12.6 °C 4.3 °C 1011.7 hPa SW 7.4 km/h 7.4 km/h 57 % 0.0 mm
19:20 12.5 °C 4.2 °C 1011.7 hPa WSW 4.8 km/h 4.8 km/h 57 % 0.0 mm
19:25 12.3 °C 4.3 °C 1011.7 hPa WSW 4.8 km/h 6.4 km/h 58 % 0.0 mm
19:30 12.1 °C 4.1 °C 1011.7 hPa WSW 5.8 km/h 6.1 km/h 58 % 0.0 mm
19:35 11.9 °C 4.1 °C 1011.7 hPa SW 8.0 km/h 9.7 km/h 59 % 0.0 mm
19:40 11.7 °C 3.9 °C 1011.7 hPa SW 8.0 km/h 9.7 km/h 59 % 0.0 mm
19:45 11.6 °C 3.8 °C 1011.7 hPa SW 3.2 km/h 9.7 km/h 59 % 0.0 mm
19:50 11.3 °C 3.8 °C 1011.7 hPa West 4.2 km/h 4.2 km/h 60 % 0.0 mm
19:55 11.2 °C 3.9 °C 1011.7 hPa West 3.2 km/h 4.8 km/h 61 % 0.0 mm
20:05 10.8 °C 3.8 °C 1011.7 hPa West 3.2 km/h 4.8 km/h 62 % 0.0 mm
20:10 10.7 °C 3.7 °C 1011.7 hPa West 4.2 km/h 4.2 km/h 62 % 0.0 mm
20:15 10.6 °C 3.6 °C 1011.7 hPa West 3.2 km/h 4.8 km/h 62 % 0.0 mm
20:20 10.4 °C 3.4 °C 1011.7 hPa West 4.2 km/h 4.2 km/h 62 % 0.0 mm
20:25 10.3 °C 3.3 °C 1011.7 hPa West 3.2 km/h 4.8 km/h 62 % 0.0 mm
20:30 10.2 °C 3.4 °C 1011.7 hPa West 3.2 km/h 4.8 km/h 63 % 0.0 mm
20:35 10.1 °C 3.4 °C 1011.7 hPa West 3.2 km/h 4.8 km/h 63 % 0.0 mm
20:40 10.1 °C 3.3 °C 1011.7 hPa West 3.2 km/h 4.8 km/h 63 % 0.0 mm
20:45 10.0 °C 3.5 °C 1011.7 hPa West 3.2 km/h 4.8 km/h 64 % 0.0 mm
20:50 9.9 °C 3.6 °C 1011.7 hPa West 3.2 km/h 4.8 km/h 65 % 0.0 mm
20:55 9.8 °C 3.5 °C 1011.7 hPa West 3.2 km/h 4.8 km/h 65 % 0.0 mm
21:00 9.7 °C 3.4 °C 1011.7 hPa West 4.8 km/h 4.8 km/h 65 % 0.0 mm
21:05 9.7 °C 3.4 °C 1011.7 hPa WSW 4.8 km/h 4.8 km/h 65 % 0.0 mm
21:10 9.6 °C 3.3 °C 1011.7 hPa SW 4.8 km/h 4.8 km/h 65 % 0.0 mm
21:15 9.6 °C 3.6 °C 1011.7 hPa SW 4.8 km/h 4.8 km/h 66 % 0.0 mm
21:20 9.6 °C 3.5 °C 1011.7 hPa SW 4.8 km/h 4.8 km/h 66 % 0.0 mm
21:25 9.5 °C 3.4 °C 1011.7 hPa SW 4.8 km/h 4.8 km/h 66 % 0.0 mm
21:30 9.3 °C 3.3 °C 1011.7 hPa SW 4.2 km/h 5.8 km/h 66 % 0.0 mm
21:35 9.3 °C 3.5 °C 1011.7 hPa SW 4.2 km/h 5.8 km/h 67 % 0.0 mm
21:40 9.3 °C 3.7 °C 1011.7 hPa SW 4.2 km/h 5.8 km/h 68 % 0.0 mm
21:45 9.2 °C 3.6 °C 1011.7 hPa SW 4.2 km/h 5.8 km/h 68 % 0.0 mm
21:50 9.1 °C 3.5 °C 1011.7 hPa SW 4.2 km/h 5.8 km/h 68 % 0.0 mm
21:55 9.1 °C 3.7 °C 1011.7 hPa SW 4.2 km/h 5.8 km/h 69 % 0.0 mm
22:00 9.0 °C 3.6 °C 1011.7 hPa SW 4.2 km/h 5.8 km/h 69 % 0.0 mm
22:05 9.0 °C 3.6 °C 1011.7 hPa SW 4.2 km/h 5.8 km/h 69 % 0.0 mm
22:10 9.0 °C 3.6 °C 1011.7 hPa SW 4.2 km/h 5.8 km/h 69 % 0.0 mm
22:15 8.9 °C 3.5 °C 1011.7 hPa SW 4.2 km/h 5.8 km/h 69 % 0.0 mm
22:20 8.8 °C 3.4 °C 1012.8 hPa SW 4.2 km/h 5.8 km/h 69 % 0.0 mm
22:25 8.8 °C 3.4 °C 1012.8 hPa SW 4.2 km/h 5.8 km/h 69 % 0.0 mm
22:30 8.8 °C 3.4 °C 1012.8 hPa SW 4.2 km/h 5.8 km/h 69 % 0.0 mm
22:35 8.7 °C 3.3 °C 1011.7 hPa SW 4.8 km/h 4.8 km/h 69 % 0.0 mm
22:40 8.7 °C 3.3 °C 1011.7 hPa SW 4.2 km/h 5.8 km/h 69 % 0.0 mm
22:45 8.7 °C 3.3 °C 1011.7 hPa SW 4.8 km/h 4.8 km/h 69 % 0.0 mm
22:50 8.7 °C 3.6 °C 1011.7 hPa SW 4.2 km/h 5.8 km/h 70 % 0.0 mm
22:55 8.7 °C 3.7 °C 1011.7 hPa SW 4.8 km/h 4.8 km/h 71 % 0.0 mm
23:00 8.6 °C 3.6 °C 1011.7 hPa SW 4.8 km/h 4.8 km/h 71 % 0.0 mm
23:05 8.6 °C 3.8 °C 1011.7 hPa SW 4.8 km/h 8.0 km/h 72 % 0.0 mm
23:10 8.6 °C 3.8 °C 1011.7 hPa WSW 8.0 km/h 8.0 km/h 72 % 0.0 mm
23:15 8.6 °C 3.8 °C 1011.7 hPa WSW 4.8 km/h 9.7 km/h 72 % 0.0 mm
23:20 8.5 °C 3.7 °C 1011.7 hPa WSW 3.2 km/h 4.8 km/h 72 % 0.0 mm
23:25 7.0 °C 0.2 °C 1010.7 hPa WSW 4.8 km/h 6.4 km/h 62 % 0.0 mm
23:30 8.5 °C 3.6 °C 1011.7 hPa West 5.6 km/h 5.6 km/h 71 % 0.0 mm
23:35 8.4 °C 3.7 °C 1011.7 hPa West 1.6 km/h 4.8 km/h 72 % 0.0 mm
23:40 8.4 °C 3.4 °C 1011.7 hPa WNW 1.6 km/h 3.2 km/h 71 % 0.0 mm
23:45 8.4 °C 3.4 °C 1011.7 hPa West 1.6 km/h 3.2 km/h 71 % 0.0 mm
23:50 8.3 °C 3.3 °C 1011.7 hPa West 3.2 km/h 3.2 km/h 71 % 0.0 mm
23:55 8.3 °C 3.6 °C 1011.7 hPa West 1.6 km/h 3.2 km/h 72 % 0.0 mm
Meteo Sesrovires
Elogis d' Weather Underground - 3.5 mb

Guio original per  Jim McMurry - jmcmurry@mwt.net Adaptat per a la plantilla per  Wim van der Kuil - Leuven-Template.eu

Trobareu la nostra informacio del temps tambe a:

Weather Underground

AWEKAS